createdAt,value
2019-02-05T00:00:01.863Z,773.92
2019-02-05T00:00:06.184Z,773.9
2019-02-05T00:00:10.498Z,773.87
2019-02-05T00:00:14.817Z,773.9
2019-02-05T00:00:19.153Z,773.89
2019-02-05T00:00:23.460Z,773.9
2019-02-05T00:00:29.317Z,773.85
2019-02-05T00:00:33.836Z,773.86
2019-02-05T00:00:38.186Z,773.86
2019-02-05T00:00:42.507Z,773.9
2019-02-05T00:00:46.749Z,773.84
2019-02-05T00:00:51.085Z,773.86
2019-02-05T00:00:55.406Z,773.84
2019-02-05T00:00:59.630Z,773.88
2019-02-05T00:01:04.273Z,773.86
2019-02-05T00:01:08.512Z,773.86
2019-02-05T00:01:12.844Z,773.87
2019-02-05T00:01:17.178Z,773.85
2019-02-05T00:01:21.492Z,773.82
2019-02-05T00:01:25.702Z,773.84
2019-02-05T00:01:30.045Z,773.85
2019-02-05T00:01:37.801Z,773.85
2019-02-05T00:01:42.126Z,773.84
2019-02-05T00:01:46.473Z,773.82
2019-02-05T00:01:50.804Z,773.84
2019-02-05T00:01:55.141Z,773.79
2019-02-05T00:01:59.478Z,773.81
2019-02-05T00:02:03.704Z,773.81
2019-02-05T00:02:08.028Z,773.81
2019-02-05T00:02:12.344Z,773.84
2019-02-05T00:02:16.573Z,773.85
2019-02-05T00:02:20.908Z,773.84
2019-02-05T00:02:25.242Z,773.87
2019-02-05T00:02:29.573Z,773.81
2019-02-05T00:02:33.796Z,773.85
2019-02-05T00:02:38.118Z,773.83
2019-02-05T00:02:43.558Z,773.82
2019-02-05T00:02:48.828Z,773.87
2019-02-05T00:02:53.159Z,773.85
2019-02-05T00:02:57.482Z,773.89
2019-02-05T00:03:01.834Z,773.9
2019-02-05T00:03:06.170Z,773.9
2019-02-05T00:03:10.498Z,773.88
2019-02-05T00:03:14.829Z,773.89
2019-02-05T00:03:19.155Z,773.95
2019-02-05T00:03:23.479Z,773.91
2019-02-05T00:03:27.800Z,773.96
2019-02-05T00:03:32.130Z,773.94
2019-02-05T00:03:36.443Z,773.95
2019-02-05T00:03:40.771Z,773.94
2019-02-05T00:03:45.128Z,773.95
2019-02-05T00:03:49.452Z,773.96
2019-02-05T00:03:55.415Z,773.99
2019-02-05T00:03:59.850Z,773.94
2019-02-05T00:04:03.983Z,773.98
2019-02-05T00:04:08.311Z,773.98
2019-02-05T00:04:12.644Z,773.99
2019-02-05T00:04:16.974Z,774.01
2019-02-05T00:04:21.309Z,773.98
2019-02-05T00:04:25.645Z,774.06
2019-02-05T00:04:29.776Z,774.01
2019-02-05T00:04:34.105Z,774.05
2019-02-05T00:04:38.440Z,774.05
2019-02-05T00:04:42.765Z,774.02
2019-02-05T00:04:47.100Z,774.04
2019-02-05T00:04:51.453Z,774
2019-02-05T00:04:55.777Z,774.01
2019-02-05T00:05:01.256Z,774.09
2019-02-05T00:05:06.436Z,774.03
2019-02-05T00:05:10.748Z,774.07
2019-02-05T00:05:14.985Z,774.09
2019-02-05T00:05:19.314Z,774.05
2019-02-05T00:05:23.642Z,773.99
2019-02-05T00:05:27.980Z,773.98
2019-02-05T00:05:32.313Z,773.99
2019-02-05T00:05:36.552Z,774.03
2019-02-05T00:05:40.808Z,774.02
2019-02-05T00:05:45.156Z,774.06
2019-02-05T00:05:49.479Z,774.01
2019-02-05T00:05:53.805Z,774.04
2019-02-05T00:05:58.127Z,774.05
2019-02-05T00:06:02.458Z,774.09
2019-02-05T00:06:06.804Z,774.11
2019-02-05T00:06:12.926Z,774.09
2019-02-05T00:06:17.408Z,774.08
2019-02-05T00:06:21.729Z,774.11
2019-02-05T00:06:26.070Z,774.06
2019-02-05T00:06:30.416Z,774.14
2019-02-05T00:06:34.740Z,774.1
2019-02-05T00:06:39.056Z,774.12
2019-02-05T00:06:43.404Z,774.12
2019-02-05T00:06:47.726Z,774.15
2019-02-05T00:06:51.949Z,774.15
2019-02-05T00:06:56.286Z,774.14
2019-02-05T00:07:00.726Z,774.16
2019-02-05T00:07:05.051Z,774.15
2019-02-05T00:07:09.366Z,774.18
2019-02-05T00:07:13.607Z,774.19
2019-02-05T00:07:18.936Z,774.15
2019-02-05T00:07:24.113Z,774.15
2019-02-05T00:07:28.439Z,774.13
2019-02-05T00:07:32.670Z,774.19
2019-02-05T00:07:37.015Z,774.2
2019-02-05T00:07:41.449Z,774.16
2019-02-05T00:07:45.791Z,774.17
2019-02-05T00:07:50.199Z,774.17
2019-02-05T00:07:54.521Z,774.16
2019-02-05T00:07:58.922Z,774.16
2019-02-05T00:08:03.268Z,774.16
2019-02-05T00:08:07.587Z,774.16
2019-02-05T00:08:12.036Z,774.14
2019-02-05T00:08:16.398Z,774.16
2019-02-05T00:08:20.713Z,774.18
2019-02-05T00:08:25.044Z,774.14
2019-02-05T00:08:31.174Z,774.18
2019-02-05T00:08:35.657Z,774.12
2019-02-05T00:08:39.996Z,774.19
2019-02-05T00:08:44.340Z,774.16
2019-02-05T00:08:48.654Z,774.17
2019-02-05T00:08:52.967Z,774.15
2019-02-05T00:08:57.381Z,774.12
2019-02-05T00:09:01.695Z,774.15
2019-02-05T00:09:05.997Z,774.12
2019-02-05T00:09:10.326Z,774.11
2019-02-05T00:09:14.571Z,774.03
2019-02-05T00:09:18.893Z,774.07
2019-02-05T00:09:23.230Z,774.06
2019-02-05T00:09:27.551Z,774.08
2019-02-05T00:09:31.858Z,774.04
2019-02-05T00:09:37.202Z,774.03
2019-02-05T00:09:42.695Z,773.99
2019-02-05T00:09:47.113Z,773.98
2019-02-05T00:09:51.423Z,774.03
2019-02-05T00:09:55.732Z,773.98
2019-02-05T00:10:00.149Z,773.94
2019-02-05T00:10:04.567Z,773.94
2019-02-05T00:10:08.906Z,773.94
2019-02-05T00:10:13.231Z,773.94
2019-02-05T00:10:17.549Z,773.89
2019-02-05T00:10:21.881Z,773.92
2019-02-05T00:10:26.216Z,773.87
2019-02-05T00:10:30.659Z,773.84
2019-02-05T00:10:34.975Z,773.82
2019-02-05T00:10:39.391Z,773.78
2019-02-05T00:10:44.131Z,773.78
2019-02-05T00:10:49.918Z,773.77
2019-02-05T00:10:54.255Z,773.76
2019-02-05T00:10:58.585Z,773.71
2019-02-05T00:11:02.924Z,773.7
2019-02-05T00:11:07.253Z,773.66
2019-02-05T00:11:11.589Z,773.72
2019-02-05T00:11:15.930Z,773.68
2019-02-05T00:11:20.148Z,773.66
2019-02-05T00:11:24.464Z,773.64
2019-02-05T00:11:28.683Z,773.65
2019-02-05T00:11:32.991Z,773.6
2019-02-05T00:11:37.414Z,773.58
2019-02-05T00:11:41.725Z,773.57
2019-02-05T00:11:46.051Z,773.55
2019-02-05T00:11:50.483Z,773.53
2019-02-05T00:11:56.213Z,773.55
2019-02-05T00:12:01.244Z,773.52
2019-02-05T00:12:05.719Z,773.5
2019-02-05T00:12:10.050Z,773.51
2019-02-05T00:12:14.371Z,773.5
2019-02-05T00:12:18.719Z,773.48
2019-02-05T00:12:22.952Z,773.5
2019-02-05T00:12:27.268Z,773.48
2019-02-05T00:12:31.604Z,773.41
2019-02-05T00:12:35.929Z,773.42
2019-02-05T00:12:40.355Z,773.42
2019-02-05T00:12:44.673Z,773.46
2019-02-05T00:12:48.998Z,773.44
2019-02-05T00:12:53.326Z,773.44
2019-02-05T00:12:57.763Z,773.39
2019-02-05T00:13:02.816Z,773.38
2019-02-05T00:13:08.606Z,773.41
2019-02-05T00:13:12.963Z,773.4
2019-02-05T00:13:17.288Z,773.35
2019-02-05T00:13:21.622Z,773.36
2019-02-05T00:13:25.670Z,773.36
2019-02-05T00:13:30.093Z,773.39
2019-02-05T00:13:34.406Z,773.36
2019-02-05T00:13:38.842Z,773.36
2019-02-05T00:13:43.174Z,773.34
2019-02-05T00:13:47.497Z,773.37
2019-02-05T00:13:51.834Z,773.35
2019-02-05T00:13:56.144Z,773.38
2019-02-05T00:14:00.496Z,773.37
2019-02-05T00:14:04.832Z,773.38
2019-02-05T00:14:09.152Z,773.36
2019-02-05T00:14:15.158Z,773.4
2019-02-05T00:14:19.682Z,773.38
2019-02-05T00:14:24.005Z,773.35
2019-02-05T00:14:28.329Z,773.37
2019-02-05T00:14:32.648Z,773.35
2019-02-05T00:14:36.969Z,773.38
2019-02-05T00:14:41.294Z,773.42
2019-02-05T00:14:45.617Z,773.38
2019-02-05T00:14:49.944Z,773.4
2019-02-05T00:14:54.167Z,773.31
2019-02-05T00:14:58.485Z,773.33
2019-02-05T00:15:02.823Z,773.36
2019-02-05T00:15:07.141Z,773.35
2019-02-05T00:15:11.453Z,773.36
2019-02-05T00:15:15.785Z,773.35
2019-02-05T00:15:20.837Z,773.31
2019-02-05T00:15:26.599Z,773.28
2019-02-05T00:15:30.925Z,773.33
2019-02-05T00:15:35.287Z,773.3
2019-02-05T00:15:39.715Z,773.31
2019-02-05T00:15:43.946Z,773.3
2019-02-05T00:15:48.282Z,773.3
2019-02-05T00:15:52.513Z,773.25
2019-02-05T00:15:56.845Z,773.27
2019-02-05T00:16:01.170Z,773.27
2019-02-05T00:16:05.517Z,773.23
2019-02-05T00:16:09.843Z,773.21
2019-02-05T00:16:14.182Z,773.23
2019-02-05T00:16:18.499Z,773.22
2019-02-05T00:16:22.813Z,773.17
2019-02-05T00:16:27.135Z,773.19
2019-02-05T00:16:32.815Z,773.15
2019-02-05T00:16:37.479Z,773.18
2019-02-05T00:16:41.814Z,773.14
2019-02-05T00:16:46.138Z,773.13
2019-02-05T00:16:50.470Z,773.14
2019-02-05T00:16:54.809Z,773.11
2019-02-05T00:16:59.137Z,773.08
2019-02-05T00:17:03.475Z,773.08
2019-02-05T00:17:07.799Z,773.1
2019-02-05T00:17:12.138Z,773.08
2019-02-05T00:17:16.474Z,773.05
2019-02-05T00:17:20.826Z,773.05
2019-02-05T00:17:25.147Z,773.04
2019-02-05T00:17:29.481Z,773.02
2019-02-05T00:17:33.732Z,773.05
2019-02-05T00:17:39.013Z,773.04
2019-02-05T00:17:44.483Z,773.04
2019-02-05T00:17:48.696Z,772.98
2019-02-05T00:17:53.021Z,772.94
2019-02-05T00:17:57.344Z,772.94
2019-02-05T00:18:01.664Z,772.92
2019-02-05T00:18:05.997Z,772.88
2019-02-05T00:18:10.325Z,772.88
2019-02-05T00:18:14.642Z,772.85
2019-02-05T00:18:18.967Z,772.81
2019-02-05T00:18:23.294Z,772.81
2019-02-05T00:18:27.617Z,772.86
2019-02-05T00:18:31.939Z,772.85
2019-02-05T00:18:36.266Z,772.84
2019-02-05T00:18:40.581Z,772.83
2019-02-05T00:18:44.898Z,772.82
2019-02-05T00:18:53.116Z,772.8
2019-02-05T00:18:57.345Z,772.81
2019-02-05T00:19:01.679Z,772.81
2019-02-05T00:19:06.163Z,772.79
2019-02-05T00:19:10.509Z,772.83
2019-02-05T00:19:14.834Z,772.81
2019-02-05T00:19:19.066Z,772.82
2019-02-05T00:19:23.382Z,772.79
2019-02-05T00:19:27.712Z,772.82
2019-02-05T00:19:32.039Z,772.82
2019-02-05T00:19:36.268Z,772.82
2019-02-05T00:19:40.602Z,772.81
2019-02-05T00:19:44.942Z,772.84
2019-02-05T00:19:49.251Z,772.78
2019-02-05T00:19:53.570Z,772.8
2019-02-05T00:19:59.862Z,772.78
2019-02-05T00:20:04.302Z,772.78
2019-02-05T00:20:08.616Z,772.78
2019-02-05T00:20:12.952Z,772.79
2019-02-05T00:20:17.290Z,772.79
2019-02-05T00:20:21.515Z,772.79
2019-02-05T00:20:25.754Z,772.8
2019-02-05T00:20:30.090Z,772.79
2019-02-05T00:20:34.418Z,772.81
2019-02-05T00:20:38.738Z,772.82
2019-02-05T00:20:42.966Z,772.78
2019-02-05T00:20:47.312Z,772.81
2019-02-05T00:20:51.623Z,772.81
2019-02-05T00:20:55.949Z,772.79
2019-02-05T00:21:00.290Z,772.78
2019-02-05T00:21:05.837Z,772.78
2019-02-05T00:21:10.921Z,772.78
2019-02-05T00:21:15.247Z,772.8
2019-02-05T00:21:19.576Z,772.79
2019-02-05T00:21:23.910Z,772.73
2019-02-05T00:21:28.316Z,772.76
2019-02-05T00:21:32.641Z,772.73
2019-02-05T00:21:36.978Z,772.8
2019-02-05T00:21:41.297Z,772.81
2019-02-05T00:21:45.616Z,772.82
2019-02-05T00:21:49.939Z,772.82
2019-02-05T00:21:54.272Z,772.81
2019-02-05T00:21:58.714Z,772.82
2019-02-05T00:22:03.050Z,772.83
2019-02-05T00:22:07.386Z,772.79
2019-02-05T00:22:12.113Z,772.82
2019-02-05T00:22:17.971Z,772.83
2019-02-05T00:22:22.418Z,772.82
2019-02-05T00:22:26.733Z,772.79
2019-02-05T00:22:31.059Z,772.77
2019-02-05T00:22:35.384Z,772.76
2019-02-05T00:22:39.701Z,772.73
2019-02-05T00:22:44.023Z,772.75
2019-02-05T00:22:48.339Z,772.72
2019-02-05T00:22:52.661Z,772.71
2019-02-05T00:22:56.997Z,772.71
2019-02-05T00:23:01.326Z,772.7
2019-02-05T00:23:05.649Z,772.61
2019-02-05T00:23:09.978Z,772.64
2019-02-05T00:23:14.307Z,772.67
2019-02-05T00:23:18.652Z,772.65
2019-02-05T00:23:24.349Z,772.64
2019-02-05T00:23:29.084Z,772.61
2019-02-05T00:23:33.408Z,772.66
2019-02-05T00:23:37.720Z,772.65
2019-02-05T00:23:42.031Z,772.63
2019-02-05T00:23:46.260Z,772.63
2019-02-05T00:23:50.494Z,772.64
2019-02-05T00:23:54.821Z,772.64
2019-02-05T00:23:59.145Z,772.65
2019-02-05T00:24:03.574Z,772.61
2019-02-05T00:24:07.798Z,772.63
2019-02-05T00:24:12.138Z,772.63
2019-02-05T00:24:16.465Z,772.62
2019-02-05T00:24:20.798Z,772.63
2019-02-05T00:24:25.122Z,772.64
2019-02-05T00:24:29.844Z,772.67
2019-02-05T00:24:35.646Z,772.63
2019-02-05T00:24:39.976Z,772.64
2019-02-05T00:24:44.297Z,772.65
2019-02-05T00:24:48.627Z,772.63
2019-02-05T00:24:52.955Z,772.65
2019-02-05T00:24:57.283Z,772.68
2019-02-05T00:25:01.801Z,772.66
2019-02-05T00:25:06.038Z,772.68
2019-02-05T00:25:10.358Z,772.7
2019-02-05T00:25:14.671Z,772.67
2019-02-05T00:25:18.907Z,772.69
2019-02-05T00:25:23.235Z,772.71
2019-02-05T00:25:27.546Z,772.67
2019-02-05T00:25:31.773Z,772.74
2019-02-05T00:25:36.106Z,772.75
2019-02-05T00:25:41.798Z,772.74
2019-02-05T00:25:46.652Z,772.74
2019-02-05T00:25:50.980Z,772.75
2019-02-05T00:26:06.720Z,772.74
2019-02-05T00:26:11.092Z,772.79
2019-02-05T00:26:15.401Z,772.75
2019-02-05T00:26:19.742Z,772.75
2019-02-05T00:26:23.980Z,772.75
2019-02-05T00:26:28.293Z,772.77
2019-02-05T00:26:32.610Z,772.75
2019-02-05T00:26:36.928Z,772.79
2019-02-05T00:26:41.251Z,772.78
2019-02-05T00:26:45.594Z,772.76
2019-02-05T00:26:51.291Z,772.79
2019-02-05T00:26:56.196Z,772.79
2019-02-05T00:27:00.509Z,772.81
2019-02-05T00:27:04.990Z,772.8
2019-02-05T00:27:09.315Z,772.83
2019-02-05T00:27:13.562Z,772.78
2019-02-05T00:27:17.939Z,772.79
2019-02-05T00:27:22.269Z,772.81
2019-02-05T00:27:26.699Z,772.78
2019-02-05T00:27:31.028Z,772.8
2019-02-05T00:27:35.373Z,772.8
2019-02-05T00:27:39.696Z,772.78
2019-02-05T00:27:44.022Z,772.79
2019-02-05T00:27:48.349Z,772.79
2019-02-05T00:27:52.673Z,772.75
2019-02-05T00:27:57.658Z,772.74
2019-02-05T00:28:03.245Z,772.75
2019-02-05T00:28:07.575Z,772.78
2019-02-05T00:28:11.899Z,772.73
2019-02-05T00:28:16.229Z,772.78
2019-02-05T00:28:20.546Z,772.77
2019-02-05T00:28:24.824Z,772.74
2019-02-05T00:28:29.140Z,772.78
2019-02-05T00:28:33.452Z,772.75
2019-02-05T00:28:37.754Z,772.76
2019-02-05T00:28:42.093Z,772.74
2019-02-05T00:28:46.421Z,772.78
2019-02-05T00:28:50.743Z,772.71
2019-02-05T00:28:55.086Z,772.76
2019-02-05T00:28:59.411Z,772.74
2019-02-05T00:29:03.744Z,772.76
2019-02-05T00:29:09.615Z,772.75
2019-02-05T00:29:14.208Z,772.78
2019-02-05T00:29:18.356Z,772.78
2019-02-05T00:29:22.500Z,772.79
2019-02-05T00:29:26.824Z,772.82
2019-02-05T00:29:31.170Z,772.81
2019-02-05T00:29:35.554Z,772.81
2019-02-05T00:29:39.791Z,772.82
2019-02-05T00:29:44.129Z,772.81
2019-02-05T00:29:48.359Z,772.86
2019-02-05T00:29:52.587Z,772.9
2019-02-05T00:29:56.828Z,772.92
2019-02-05T00:30:01.261Z,772.89
2019-02-05T00:30:05.495Z,772.91
2019-02-05T00:30:09.817Z,772.92
2019-02-05T00:30:14.981Z,772.94
2019-02-05T00:30:20.838Z,772.9
2019-02-05T00:30:25.168Z,772.92
2019-02-05T00:30:29.496Z,772.94
2019-02-05T00:30:33.777Z,772.94
2019-02-05T00:30:38.114Z,772.92
2019-02-05T00:30:42.444Z,772.95
2019-02-05T00:30:46.764Z,772.95
2019-02-05T00:30:51.000Z,772.99
2019-02-05T00:30:55.315Z,772.99
2019-02-05T00:30:59.646Z,772.98
2019-02-05T00:31:04.179Z,773
2019-02-05T00:31:08.493Z,773.05
2019-02-05T00:31:12.819Z,773.07
2019-02-05T00:31:17.138Z,773.06
2019-02-05T00:31:21.462Z,773.05
2019-02-05T00:31:27.444Z,773.05
2019-02-05T00:31:31.972Z,773.11
2019-02-05T00:31:36.298Z,773.09
2019-02-05T00:31:40.618Z,773.11
2019-02-05T00:31:44.943Z,773.13
2019-02-05T00:31:49.266Z,773.12
2019-02-05T00:31:53.595Z,773.16
2019-02-05T00:31:57.912Z,773.14
2019-02-05T00:32:02.234Z,773.16
2019-02-05T00:32:06.581Z,773.16
2019-02-05T00:32:10.898Z,773.18
2019-02-05T00:32:15.225Z,773.16
2019-02-05T00:32:19.552Z,773.19
2019-02-05T00:32:23.779Z,773.17
2019-02-05T00:32:28.109Z,773.17
2019-02-05T00:32:33.342Z,773.22
2019-02-05T00:32:38.719Z,773.22
2019-02-05T00:32:43.048Z,773.24
2019-02-05T00:32:47.369Z,773.25
2019-02-05T00:32:51.628Z,773.26
2019-02-05T00:32:55.858Z,773.27
2019-02-05T00:33:00.249Z,773.29
2019-02-05T00:33:04.676Z,773.3
2019-02-05T00:33:09.006Z,773.29
2019-02-05T00:33:13.355Z,773.26
2019-02-05T00:33:17.587Z,773.28
2019-02-05T00:33:21.918Z,773.33
2019-02-05T00:33:26.350Z,773.36
2019-02-05T00:33:30.685Z,773.32
2019-02-05T00:33:35.147Z,773.33
2019-02-05T00:33:39.489Z,773.32
2019-02-05T00:33:45.428Z,773.35
2019-02-05T00:33:49.812Z,773.36
2019-02-05T00:33:54.139Z,773.38
2019-02-05T00:33:58.538Z,773.38
2019-02-05T00:34:02.878Z,773.39
2019-02-05T00:34:07.200Z,773.46
2019-02-05T00:34:11.535Z,773.47
2019-02-05T00:34:15.861Z,773.47
2019-02-05T00:34:20.286Z,773.49
2019-02-05T00:34:24.601Z,773.5
2019-02-05T00:34:28.960Z,773.53
2019-02-05T00:34:33.296Z,773.54
2019-02-05T00:34:37.644Z,773.56
2019-02-05T00:34:41.971Z,773.56
2019-02-05T00:34:46.294Z,773.55
2019-02-05T00:34:51.341Z,773.57
2019-02-05T00:34:56.704Z,773.58
2019-02-05T00:35:01.040Z,773.58
2019-02-05T00:35:05.367Z,773.62
2019-02-05T00:35:09.701Z,773.6
2019-02-05T00:35:13.945Z,773.64
2019-02-05T00:35:18.167Z,773.62
2019-02-05T00:35:22.527Z,773.68
2019-02-05T00:35:26.848Z,773.66
2019-02-05T00:35:31.084Z,773.65
2019-02-05T00:35:35.439Z,773.66
2019-02-05T00:35:39.651Z,773.68
2019-02-05T00:35:43.989Z,773.68
2019-02-05T00:35:48.415Z,773.69
2019-02-05T00:35:52.760Z,773.68
2019-02-05T00:35:56.978Z,773.7
2019-02-05T00:36:02.775Z,773.74
2019-02-05T00:36:07.518Z,773.73
2019-02-05T00:36:11.847Z,773.78
2019-02-05T00:36:16.082Z,773.8
2019-02-05T00:36:20.407Z,773.79
2019-02-05T00:36:24.621Z,773.8
2019-02-05T00:36:28.942Z,773.81
2019-02-05T00:36:33.259Z,773.8
2019-02-05T00:36:37.606Z,773.82
2019-02-05T00:36:41.989Z,773.85
2019-02-05T00:36:46.329Z,773.87
2019-02-05T00:36:50.649Z,773.87
2019-02-05T00:36:54.984Z,773.88
2019-02-05T00:36:59.296Z,773.84
2019-02-05T00:37:03.626Z,773.88
2019-02-05T00:37:08.429Z,773.91
2019-02-05T00:37:14.050Z,773.88
2019-02-05T00:37:18.394Z,773.92
2019-02-05T00:37:22.719Z,773.92
2019-02-05T00:37:27.041Z,773.91
2019-02-05T00:37:31.374Z,773.96
2019-02-05T00:37:35.686Z,773.94
2019-02-05T00:37:39.953Z,773.95
2019-02-05T00:37:44.278Z,773.96
2019-02-05T00:37:48.669Z,773.94
2019-02-05T00:37:53.005Z,773.97
2019-02-05T00:37:57.342Z,773.99
2019-02-05T00:38:01.669Z,773.99
2019-02-05T00:38:05.999Z,774
2019-02-05T00:38:10.242Z,773.99
2019-02-05T00:38:14.561Z,774
2019-02-05T00:38:20.384Z,774.01
2019-02-05T00:38:25.088Z,773.97
2019-02-05T00:38:29.425Z,774.02
2019-02-05T00:38:33.746Z,774.07
2019-02-05T00:38:38.116Z,774.04
2019-02-05T00:38:42.441Z,774.11
2019-02-05T00:38:46.782Z,774.06
2019-02-05T00:38:51.107Z,774.07
2019-02-05T00:38:55.506Z,774.06
2019-02-05T00:38:59.838Z,774.04
2019-02-05T00:39:04.181Z,774.07
2019-02-05T00:39:08.519Z,774.08
2019-02-05T00:39:12.739Z,774.08
2019-02-05T00:39:17.064Z,774.08
2019-02-05T00:39:21.384Z,774.14
2019-02-05T00:39:26.424Z,774.11
2019-02-05T00:39:32.059Z,774.15
2019-02-05T00:39:36.312Z,774.06
2019-02-05T00:39:40.646Z,774.09
2019-02-05T00:39:44.995Z,774.11
2019-02-05T00:39:49.339Z,774.1
2019-02-05T00:39:53.671Z,774.08
2019-02-05T00:39:57.893Z,774.1
2019-02-05T00:40:02.233Z,774.09
2019-02-05T00:40:06.562Z,774.11
2019-02-05T00:40:10.875Z,774.09
2019-02-05T00:40:15.209Z,774.09
2019-02-05T00:40:19.548Z,774.13
2019-02-05T00:40:23.980Z,774.14
2019-02-05T00:40:28.302Z,774.12
2019-02-05T00:40:32.628Z,774.16
2019-02-05T00:40:38.462Z,774.14
2019-02-05T00:40:43.147Z,774.16
2019-02-05T00:40:47.583Z,774.15
2019-02-05T00:40:51.895Z,774.18
2019-02-05T00:40:56.220Z,774.21
2019-02-05T00:41:00.602Z,774.19
2019-02-05T00:41:05.032Z,774.22
2019-02-05T00:41:09.360Z,774.2
2019-02-05T00:41:13.684Z,774.22
2019-02-05T00:41:17.936Z,774.19
2019-02-05T00:41:22.159Z,774.2
2019-02-05T00:41:26.488Z,774.23
2019-02-05T00:41:30.810Z,774.2
2019-02-05T00:41:35.138Z,774.22
2019-02-05T00:41:39.471Z,774.21
2019-02-05T00:41:44.806Z,774.25
2019-02-05T00:41:50.260Z,774.26
2019-02-05T00:41:54.594Z,774.27
2019-02-05T00:41:58.836Z,774.27
2019-02-05T00:42:03.106Z,774.27
2019-02-05T00:42:07.436Z,774.27
2019-02-05T00:42:11.764Z,774.3
2019-02-05T00:42:16.094Z,774.31
2019-02-05T00:42:20.425Z,774.32
2019-02-05T00:42:24.747Z,774.31
2019-02-05T00:42:29.143Z,774.3
2019-02-05T00:42:33.480Z,774.3
2019-02-05T00:42:37.806Z,774.31
2019-02-05T00:42:42.124Z,774.31
2019-02-05T00:42:46.464Z,774.33
2019-02-05T00:42:50.782Z,774.32
2019-02-05T00:42:57.012Z,774.32
2019-02-05T00:43:01.419Z,774.33
2019-02-05T00:43:05.763Z,774.35
2019-02-05T00:43:10.002Z,774.31
2019-02-05T00:43:14.325Z,774.35
2019-02-05T00:43:18.554Z,774.3
2019-02-05T00:43:22.886Z,774.35
2019-02-05T00:43:27.216Z,774.35
2019-02-05T00:43:31.549Z,774.36
2019-02-05T00:43:35.784Z,774.35
2019-02-05T00:43:40.113Z,774.3
2019-02-05T00:43:44.461Z,774.32
2019-02-05T00:43:48.723Z,774.34
2019-02-05T00:43:53.033Z,774.34
2019-02-05T00:43:57.355Z,774.36
2019-02-05T00:44:02.588Z,774.33
2019-02-05T00:44:08.044Z,774.34
2019-02-05T00:44:12.376Z,774.32
2019-02-05T00:44:16.608Z,774.32
2019-02-05T00:44:21.045Z,774.34
2019-02-05T00:44:25.392Z,774.36
2019-02-05T00:44:29.710Z,774.36
2019-02-05T00:44:34.019Z,774.39
2019-02-05T00:44:38.328Z,774.35
2019-02-05T00:44:42.655Z,774.37
2019-02-05T00:44:46.974Z,774.39
2019-02-05T00:44:51.296Z,774.4
2019-02-05T00:44:55.608Z,774.36
2019-02-05T00:44:59.967Z,774.38
2019-02-05T00:45:04.118Z,774.4
2019-02-05T00:45:08.442Z,774.44
2019-02-05T00:45:14.642Z,774.43
2019-02-05T00:45:19.097Z,774.46
2019-02-05T00:45:23.409Z,774.43
2019-02-05T00:45:27.630Z,774.43
2019-02-05T00:45:31.962Z,774.46
2019-02-05T00:45:36.082Z,774.44
2019-02-05T00:45:40.408Z,774.47
2019-02-05T00:45:44.754Z,774.45
2019-02-05T00:45:49.184Z,774.49
2019-02-05T00:45:53.513Z,774.47
2019-02-05T00:45:57.833Z,774.5
2019-02-05T00:46:02.059Z,774.52
2019-02-05T00:46:06.367Z,774.5
2019-02-05T00:46:10.690Z,774.49
2019-02-05T00:46:15.007Z,774.49
2019-02-05T00:46:19.817Z,774.49
2019-02-05T00:46:25.372Z,774.44
2019-02-05T00:46:29.694Z,774.46
2019-02-05T00:46:34.019Z,774.47
2019-02-05T00:46:38.337Z,774.44
2019-02-05T00:46:42.659Z,774.46
2019-02-05T00:46:46.875Z,774.42
2019-02-05T00:46:51.192Z,774.44
2019-02-05T00:46:55.509Z,774.41
2019-02-05T00:46:59.743Z,774.44
2019-02-05T00:47:04.173Z,774.44
2019-02-05T00:47:08.409Z,774.43
2019-02-05T00:47:12.735Z,774.4
2019-02-05T00:47:17.061Z,774.43
2019-02-05T00:47:21.483Z,774.39
2019-02-05T00:47:25.810Z,774.41
2019-02-05T00:47:33.942Z,774.39
2019-02-05T00:47:38.269Z,774.36
2019-02-05T00:47:42.598Z,774.34
2019-02-05T00:47:46.928Z,774.32
2019-02-05T00:47:51.260Z,774.33
2019-02-05T00:47:55.601Z,774.25
2019-02-05T00:47:59.839Z,774.28
2019-02-05T00:48:04.319Z,774.27
2019-02-05T00:48:08.658Z,774.25
2019-02-05T00:48:12.982Z,774.23
2019-02-05T00:48:17.302Z,774.24
2019-02-05T00:48:21.679Z,774.22
2019-02-05T00:48:26.005Z,774.24
2019-02-05T00:48:30.337Z,774.26
2019-02-05T00:48:34.656Z,774.25
2019-02-05T00:48:40.373Z,774.21
2019-02-05T00:48:45.127Z,774.21
2019-02-05T00:48:49.444Z,774.18
2019-02-05T00:48:53.868Z,774.27
2019-02-05T00:48:58.190Z,774.21
2019-02-05T00:49:02.526Z,774.22
2019-02-05T00:49:06.856Z,774.25
2019-02-05T00:49:11.194Z,774.27
2019-02-05T00:49:15.508Z,774.26
2019-02-05T00:49:19.970Z,774.22
2019-02-05T00:49:24.296Z,774.25
2019-02-05T00:49:28.516Z,774.27
2019-02-05T00:49:32.842Z,774.27
2019-02-05T00:49:37.085Z,774.24
2019-02-05T00:49:41.323Z,774.23
2019-02-05T00:49:46.681Z,774.24
2019-02-05T00:49:51.922Z,774.26
2019-02-05T00:49:56.259Z,774.25
2019-02-05T00:50:00.572Z,774.27
2019-02-05T00:50:04.814Z,774.26
2019-02-05T00:50:09.136Z,774.26
2019-02-05T00:50:13.587Z,774.27
2019-02-05T00:50:17.822Z,774.26
2019-02-05T00:50:22.080Z,774.27
2019-02-05T00:50:26.384Z,774.28
2019-02-05T00:50:30.710Z,774.3
2019-02-05T00:50:35.149Z,774.3
2019-02-05T00:50:39.491Z,774.27
2019-02-05T00:50:43.820Z,774.31
2019-02-05T00:50:48.147Z,774.32
2019-02-05T00:50:52.476Z,774.32
2019-02-05T00:50:58.580Z,774.32
2019-02-05T00:51:03.141Z,774.34
2019-02-05T00:51:07.471Z,774.38
2019-02-05T00:51:11.804Z,774.35
2019-02-05T00:51:16.143Z,774.36
2019-02-05T00:51:20.473Z,774.37
2019-02-05T00:51:24.801Z,774.38
2019-02-05T00:51:28.842Z,774.4
2019-02-05T00:51:33.161Z,774.38
2019-02-05T00:51:37.494Z,774.43
2019-02-05T00:51:41.822Z,774.44
2019-02-05T00:51:46.150Z,774.42
2019-02-05T00:51:50.478Z,774.44
2019-02-05T00:51:54.807Z,774.43
2019-02-05T00:51:59.132Z,774.46
2019-02-05T00:52:04.319Z,774.43
2019-02-05T00:52:09.773Z,774.49
2019-02-05T00:52:14.097Z,774.48
2019-02-05T00:52:18.428Z,774.48
2019-02-05T00:52:22.780Z,774.5
2019-02-05T00:52:27.103Z,774.44
2019-02-05T00:52:31.422Z,774.52
2019-02-05T00:52:35.746Z,774.53
2019-02-05T00:52:40.067Z,774.51
2019-02-05T00:52:44.295Z,774.52
2019-02-05T00:52:48.561Z,774.47
2019-02-05T00:52:52.890Z,774.5
2019-02-05T00:52:57.125Z,774.51
2019-02-05T00:53:01.463Z,774.51
2019-02-05T00:53:05.810Z,774.47
2019-02-05T00:53:10.135Z,774.47
2019-02-05T00:53:16.091Z,774.47
2019-02-05T00:53:20.744Z,774.48
2019-02-05T00:53:25.060Z,774.46
2019-02-05T00:53:29.381Z,774.43
2019-02-05T00:53:33.719Z,774.47
2019-02-05T00:53:38.045Z,774.38
2019-02-05T00:53:42.275Z,774.39
2019-02-05T00:53:46.710Z,774.37
2019-02-05T00:53:51.033Z,774.38
2019-02-05T00:53:55.363Z,774.37
2019-02-05T00:53:59.688Z,774.33
2019-02-05T00:54:04.014Z,774.3
2019-02-05T00:54:08.454Z,774.32
2019-02-05T00:54:12.792Z,774.31
2019-02-05T00:54:17.118Z,774.32
2019-02-05T00:54:22.344Z,774.3
2019-02-05T00:54:27.410Z,774.29
2019-02-05T00:54:31.732Z,774.18
2019-02-05T00:54:36.178Z,774.23
2019-02-05T00:54:40.498Z,774.18
2019-02-05T00:54:44.822Z,774.28
2019-02-05T00:54:49.156Z,774.22
2019-02-05T00:54:53.389Z,774.21
2019-02-05T00:54:57.718Z,774.26
2019-02-05T00:55:02.035Z,774.16
2019-02-05T00:55:06.249Z,774.19
2019-02-05T00:55:10.569Z,774.17
2019-02-05T00:55:14.805Z,774.21
2019-02-05T00:55:19.154Z,774.16
2019-02-05T00:55:23.608Z,774.19
2019-02-05T00:55:27.954Z,774.15
2019-02-05T00:55:33.987Z,774.11
2019-02-05T00:55:38.596Z,774.11
2019-02-05T00:55:42.929Z,774.12
2019-02-05T00:55:47.257Z,774.08
2019-02-05T00:55:51.602Z,774.09
2019-02-05T00:55:55.853Z,774.09